sensor_id;sensor_type;location;lat;lon;timestamp;pressure;altitude;pressure_sealevel;temperature;humidity
63607;BME280;71992;52.478;-1.918;2023-08-07T00:01:06;100215.06;;;13.62;89.41
63607;BME280;71992;52.478;-1.918;2023-08-07T00:03:37;100213.34;;;13.61;89.39
63607;BME280;71992;52.478;-1.918;2023-08-07T00:06:08;100214.19;;;13.61;89.84
63607;BME280;71992;52.478;-1.918;2023-08-07T00:08:38;100208.94;;;13.60;89.81
63607;BME280;71992;52.478;-1.918;2023-08-07T00:11:12;100213.78;;;13.54;89.87
63607;BME280;71992;52.478;-1.918;2023-08-07T00:13:43;100204.00;;;13.53;90.21
63607;BME280;71992;52.478;-1.918;2023-08-07T00:16:13;100210.25;;;13.54;90.50
63607;BME280;71992;52.478;-1.918;2023-08-07T00:18:45;100198.84;;;13.50;90.64
63607;BME280;71992;52.478;-1.918;2023-08-07T00:21:16;100206.16;;;13.48;90.94
63607;BME280;71992;52.478;-1.918;2023-08-07T00:23:47;100204.78;;;13.43;90.72
63607;BME280;71992;52.478;-1.918;2023-08-07T00:26:20;100198.00;;;13.37;90.69
63607;BME280;71992;52.478;-1.918;2023-08-07T00:28:51;100198.13;;;13.35;91.28
63607;BME280;71992;52.478;-1.918;2023-08-07T00:31:22;100199.06;;;13.34;91.19
63607;BME280;71992;52.478;-1.918;2023-08-07T00:33:53;100206.25;;;13.34;91.10
63607;BME280;71992;52.478;-1.918;2023-08-07T00:36:26;100200.38;;;13.29;91.56
63607;BME280;71992;52.478;-1.918;2023-08-07T00:38:56;100192.47;;;13.26;91.52
63607;BME280;71992;52.478;-1.918;2023-08-07T00:41:30;100195.94;;;13.28;91.66
63607;BME280;71992;52.478;-1.918;2023-08-07T00:44:01;100189.72;;;13.27;91.62
63607;BME280;71992;52.478;-1.918;2023-08-07T00:46:32;100188.00;;;13.26;91.78
63607;BME280;71992;52.478;-1.918;2023-08-07T00:49:03;100173.72;;;13.26;91.62
63607;BME280;71992;52.478;-1.918;2023-08-07T00:51:35;100179.31;;;13.23;91.99
63607;BME280;71992;52.478;-1.918;2023-08-07T00:54:07;100177.78;;;13.19;92.13
63607;BME280;71992;52.478;-1.918;2023-08-07T00:56:43;100175.00;;;13.20;92.29
63607;BME280;71992;52.478;-1.918;2023-08-07T00:59:14;100176.72;;;13.21;92.25
63607;BME280;71992;52.478;-1.918;2023-08-07T01:01:45;100166.22;;;13.18;92.08
63607;BME280;71992;52.478;-1.918;2023-08-07T01:04:17;100169.75;;;13.19;92.43
63607;BME280;71992;52.478;-1.918;2023-08-07T01:06:49;100174.47;;;13.15;92.24
63607;BME280;71992;52.478;-1.918;2023-08-07T01:09:19;100170.16;;;13.12;92.66
63607;BME280;71992;52.478;-1.918;2023-08-07T01:11:58;100172.97;;;13.11;92.54
63607;BME280;71992;52.478;-1.918;2023-08-07T01:14:37;100170.38;;;13.09;92.84
63607;BME280;71992;52.478;-1.918;2023-08-07T01:17:11;100175.97;;;13.06;93.06
63607;BME280;71992;52.478;-1.918;2023-08-07T01:19:44;100176.91;;;13.05;93.19
63607;BME280;71992;52.478;-1.918;2023-08-07T01:22:19;100175.84;;;13.08;93.33
63607;BME280;71992;52.478;-1.918;2023-08-07T01:24:51;100172.44;;;13.06;93.17
63607;BME280;71992;52.478;-1.918;2023-08-07T01:27:31;100177.06;;;13.04;93.44
63607;BME280;71992;52.478;-1.918;2023-08-07T01:30:11;100177.16;;;13.02;93.26
63607;BME280;71992;52.478;-1.918;2023-08-07T01:32:49;100174.38;;;13.04;93.53
63607;BME280;71992;52.478;-1.918;2023-08-07T01:35:29;100172.63;;;13.03;93.20
63607;BME280;71992;52.478;-1.918;2023-08-07T01:38:03;100169.41;;;12.98;93.39
63607;BME280;71992;52.478;-1.918;2023-08-07T01:40:34;100174.78;;;12.98;93.78
63607;BME280;71992;52.478;-1.918;2023-08-07T01:43:08;100170.50;;;12.95;94.05
63607;BME280;71992;52.478;-1.918;2023-08-07T01:45:39;100177.78;;;12.93;93.99
63607;BME280;71992;52.478;-1.918;2023-08-07T01:48:10;100174.34;;;12.91;94.20
63607;BME280;71992;52.478;-1.918;2023-08-07T01:50:42;100171.13;;;12.86;94.28
63607;BME280;71992;52.478;-1.918;2023-08-07T01:53:15;100177.56;;;12.83;94.39
63607;BME280;71992;52.478;-1.918;2023-08-07T01:55:46;100175.91;;;12.81;94.86
63607;BME280;71992;52.478;-1.918;2023-08-07T01:58:17;100172.28;;;12.82;95.04
63607;BME280;71992;52.478;-1.918;2023-08-07T02:00:48;100170.47;;;12.82;94.89
63607;BME280;71992;52.478;-1.918;2023-08-07T02:03:19;100174.97;;;12.82;94.73
63607;BME280;71992;52.478;-1.918;2023-08-07T02:05:50;100175.06;;;12.80;94.59
63607;BME280;71992;52.478;-1.918;2023-08-07T02:08:23;100171.63;;;12.78;94.71
63607;BME280;71992;52.478;-1.918;2023-08-07T02:10:54;100170.88;;;12.76;94.89
63607;BME280;71992;52.478;-1.918;2023-08-07T02:13:25;100166.59;;;12.73;94.66
63607;BME280;71992;52.478;-1.918;2023-08-07T02:15:56;100168.50;;;12.71;95.08
63607;BME280;71992;52.478;-1.918;2023-08-07T02:18:28;100172.81;;;12.74;95.20
63607;BME280;71992;52.478;-1.918;2023-08-07T02:20:59;100174.53;;;12.75;95.15
63607;BME280;71992;52.478;-1.918;2023-08-07T02:23:34;100172.16;;;12.70;94.85
63607;BME280;71992;52.478;-1.918;2023-08-07T02:26:05;100171.31;;;12.70;95.15
63607;BME280;71992;52.478;-1.918;2023-08-07T02:28:36;100181.19;;;12.69;95.16
63607;BME280;71992;52.478;-1.918;2023-08-07T02:31:07;100180.28;;;12.69;95.09
63607;BME280;71992;52.478;-1.918;2023-08-07T02:33:38;100191.22;;;12.66;94.98
63607;BME280;71992;52.478;-1.918;2023-08-07T02:36:09;100190.25;;;12.67;95.30
63607;BME280;71992;52.478;-1.918;2023-08-07T02:38:42;100192.28;;;12.63;95.24
63607;BME280;71992;52.478;-1.918;2023-08-07T02:41:13;100194.22;;;12.61;95.11
63607;BME280;71992;52.478;-1.918;2023-08-07T02:43:44;100195.16;;;12.60;95.37
63607;BME280;71992;52.478;-1.918;2023-08-07T02:46:14;100199.66;;;12.60;95.73
63607;BME280;71992;52.478;-1.918;2023-08-07T02:48:45;100205.25;;;12.57;95.33
63607;BME280;71992;52.478;-1.918;2023-08-07T02:51:16;100201.91;;;12.53;95.36
63607;BME280;71992;52.478;-1.918;2023-08-07T02:53:50;100196.53;;;12.53;95.58
63607;BME280;71992;52.478;-1.918;2023-08-07T02:56:21;100187.88;;;12.49;95.52
63607;BME280;71992;52.478;-1.918;2023-08-07T02:58:51;100190.41;;;12.51;95.66
63607;BME280;71992;52.478;-1.918;2023-08-07T03:01:23;100183.34;;;12.50;95.87
63607;BME280;71992;52.478;-1.918;2023-08-07T03:03:55;100192.34;;;12.49;95.76
63607;BME280;71992;52.478;-1.918;2023-08-07T03:06:26;100190.84;;;12.45;95.71
63607;BME280;71992;52.478;-1.918;2023-08-07T03:08:59;100186.34;;;12.45;95.55
63607;BME280;71992;52.478;-1.918;2023-08-07T03:11:31;100191.03;;;12.42;95.65
63607;BME280;71992;52.478;-1.918;2023-08-07T03:14:02;100192.00;;;12.41;96.07
63607;BME280;71992;52.478;-1.918;2023-08-07T03:16:33;100191.16;;;12.40;96.01
63607;BME280;71992;52.478;-1.918;2023-08-07T03:19:04;100185.88;;;12.39;95.72
63607;BME280;71992;52.478;-1.918;2023-08-07T03:21:35;100181.59;;;12.36;95.90
63607;BME280;71992;52.478;-1.918;2023-08-07T03:24:09;100186.88;;;12.38;96.01
63607;BME280;71992;52.478;-1.918;2023-08-07T03:26:40;100188.56;;;12.39;96.12
63607;BME280;71992;52.478;-1.918;2023-08-07T03:29:12;100188.56;;;12.39;96.11
63607;BME280;71992;52.478;-1.918;2023-08-07T03:31:44;100190.47;;;12.37;95.82
63607;BME280;71992;52.478;-1.918;2023-08-07T03:34:15;100186.09;;;12.36;96.13
63607;BME280;71992;52.478;-1.918;2023-08-07T03:36:45;100193.16;;;12.37;95.99
63607;BME280;71992;52.478;-1.918;2023-08-07T03:39:19;100181.59;;;12.36;95.84
63607;BME280;71992;52.478;-1.918;2023-08-07T03:41:50;100190.69;;;12.33;95.92
63607;BME280;71992;52.478;-1.918;2023-08-07T03:44:21;100190.56;;;12.35;95.92
63607;BME280;71992;52.478;-1.918;2023-08-07T03:46:51;100180.00;;;12.33;96.01
63607;BME280;71992;52.478;-1.918;2023-08-07T03:49:25;100171.38;;;12.28;95.55
63607;BME280;71992;52.478;-1.918;2023-08-07T03:51:56;100180.16;;;12.30;96.15
63607;BME280;71992;52.478;-1.918;2023-08-07T03:54:29;100188.31;;;12.29;95.96
63607;BME280;71992;52.478;-1.918;2023-08-07T03:57:00;100173.50;;;12.23;95.98
63607;BME280;71992;52.478;-1.918;2023-08-07T03:59:31;100178.84;;;12.23;96.00
63607;BME280;71992;52.478;-1.918;2023-08-07T04:02:03;100177.25;;;12.21;96.04
63607;BME280;71992;52.478;-1.918;2023-08-07T04:04:34;100175.53;;;12.20;96.17
63607;BME280;71992;52.478;-1.918;2023-08-07T04:07:05;100175.63;;;12.18;96.38
63607;BME280;71992;52.478;-1.918;2023-08-07T04:09:38;100174.88;;;12.16;96.54
63607;BME280;71992;52.478;-1.918;2023-08-07T04:12:09;100177.47;;;12.18;96.59
63607;BME280;71992;52.478;-1.918;2023-08-07T04:14:40;100163.31;;;12.16;96.38
63607;BME280;71992;52.478;-1.918;2023-08-07T04:17:11;100180.31;;;12.15;96.27
63607;BME280;71992;52.478;-1.918;2023-08-07T04:19:42;100175.94;;;12.14;96.50
63607;BME280;71992;52.478;-1.918;2023-08-07T04:22:12;100185.03;;;12.11;96.20
63607;BME280;71992;52.478;-1.918;2023-08-07T04:24:46;100173.66;;;12.07;96.50
63607;BME280;71992;52.478;-1.918;2023-08-07T04:27:16;100171.09;;;12.06;96.85
63607;BME280;71992;52.478;-1.918;2023-08-07T04:29:47;100172.03;;;12.05;96.74
63607;BME280;71992;52.478;-1.918;2023-08-07T04:32:18;100173.94;;;12.03;96.74
63607;BME280;71992;52.478;-1.918;2023-08-07T04:34:49;100169.44;;;12.03;97.01
63607;BME280;71992;52.478;-1.918;2023-08-07T04:37:20;100173.09;;;12.02;96.46
63607;BME280;71992;52.478;-1.918;2023-08-07T04:39:53;100167.81;;;12.01;97.27
63607;BME280;71992;52.478;-1.918;2023-08-07T04:42:24;100175.00;;;12.00;96.80
63607;BME280;71992;52.478;-1.918;2023-08-07T04:44:55;100178.75;;;11.98;96.79
63607;BME280;71992;52.478;-1.918;2023-08-07T04:47:28;100170.81;;;11.96;97.07
63607;BME280;71992;52.478;-1.918;2023-08-07T04:49:58;100166.31;;;11.97;96.74
63607;BME280;71992;52.478;-1.918;2023-08-07T04:52:29;100170.03;;;11.94;96.93
63607;BME280;71992;52.478;-1.918;2023-08-07T04:55:04;100168.25;;;11.95;97.00
63607;BME280;71992;52.478;-1.918;2023-08-07T04:57:35;100164.81;;;11.93;97.03
63607;BME280;71992;52.478;-1.918;2023-08-07T05:00:08;100167.47;;;11.93;96.65
63607;BME280;71992;52.478;-1.918;2023-08-07T05:02:39;100157.94;;;11.88;97.11
63607;BME280;71992;52.478;-1.918;2023-08-07T05:05:10;100166.59;;;11.92;97.08
63607;BME280;71992;52.478;-1.918;2023-08-07T05:07:42;100165.88;;;11.90;96.94
63607;BME280;71992;52.478;-1.918;2023-08-07T05:10:15;100162.13;;;11.93;97.17
63607;BME280;71992;52.478;-1.918;2023-08-07T05:12:46;100167.38;;;11.94;97.39
63607;BME280;71992;52.478;-1.918;2023-08-07T05:15:23;100168.81;;;12.00;97.26
63607;BME280;71992;52.478;-1.918;2023-08-07T05:17:53;100174.16;;;12.00;96.83
63607;BME280;71992;52.478;-1.918;2023-08-07T05:20:24;100175.00;;;12.00;97.33
63607;BME280;71992;52.478;-1.918;2023-08-07T05:22:55;100174.91;;;12.02;96.81
63607;BME280;71992;52.478;-1.918;2023-08-07T05:25:29;100173.94;;;12.03;96.87
63607;BME280;71992;52.478;-1.918;2023-08-07T05:28:00;100178.44;;;12.02;97.03
63607;BME280;71992;52.478;-1.918;2023-08-07T05:30:31;100183.59;;;12.05;97.75
63607;BME280;71992;52.478;-1.918;2023-08-07T05:33:02;100182.44;;;12.09;97.42
63607;BME280;71992;52.478;-1.918;2023-08-07T05:35:33;100179.56;;;12.12;97.38
63607;BME280;71992;52.478;-1.918;2023-08-07T05:38:03;100183.13;;;12.13;96.85
63607;BME280;71992;52.478;-1.918;2023-08-07T05:40:37;100183.88;;;12.15;96.52
63607;BME280;71992;52.478;-1.918;2023-08-07T05:43:08;100181.19;;;12.15;96.56
63607;BME280;71992;52.478;-1.918;2023-08-07T05:45:40;100186.25;;;12.20;96.51
63607;BME280;71992;52.478;-1.918;2023-08-07T05:48:12;100187.75;;;12.24;96.37
63607;BME280;71992;52.478;-1.918;2023-08-07T05:50:43;100188.50;;;12.26;95.80
63607;BME280;71992;52.478;-1.918;2023-08-07T05:53:14;100191.09;;;12.27;95.93
63607;BME280;71992;52.478;-1.918;2023-08-07T05:55:48;100189.19;;;12.29;95.86
63607;BME280;71992;52.478;-1.918;2023-08-07T05:58:18;100186.94;;;12.36;95.39
63607;BME280;71992;52.478;-1.918;2023-08-07T06:00:49;100190.84;;;12.45;95.10
63607;BME280;71992;52.478;-1.918;2023-08-07T06:03:20;100188.63;;;12.51;94.96
63607;BME280;71992;52.478;-1.918;2023-08-07T06:05:51;100194.44;;;12.58;95.15
63607;BME280;71992;52.478;-1.918;2023-08-07T06:08:22;100197.34;;;12.68;94.31
63607;BME280;71992;52.478;-1.918;2023-08-07T06:10:55;100198.25;;;12.94;93.54
63607;BME280;71992;52.478;-1.918;2023-08-07T06:13:26;100194.53;;;13.22;92.62
63607;BME280;71992;52.478;-1.918;2023-08-07T06:15:57;100188.97;;;13.51;91.33
63607;BME280;71992;52.478;-1.918;2023-08-07T06:18:30;100193.25;;;13.79;90.13
63607;BME280;71992;52.478;-1.918;2023-08-07T06:21:01;100184.03;;;14.07;89.01
63607;BME280;71992;52.478;-1.918;2023-08-07T06:23:34;100185.75;;;14.32;87.50
63607;BME280;71992;52.478;-1.918;2023-08-07T06:26:08;100183.72;;;14.60;86.21
63607;BME280;71992;52.478;-1.918;2023-08-07T06:28:39;100184.81;;;14.81;85.25
63607;BME280;71992;52.478;-1.918;2023-08-07T06:31:10;100181.72;;;15.10;83.62
63607;BME280;71992;52.478;-1.918;2023-08-07T06:33:41;100182.72;;;15.43;81.45
63607;BME280;71992;52.478;-1.918;2023-08-07T06:36:12;100183.84;;;15.63;80.76
63607;BME280;71992;52.478;-1.918;2023-08-07T06:38:43;100182.22;;;16.05;79.03
63607;BME280;71992;52.478;-1.918;2023-08-07T06:41:17;100188.44;;;16.28;77.17
63607;BME280;71992;52.478;-1.918;2023-08-07T06:43:48;100184.25;;;16.68;75.92
63607;BME280;71992;52.478;-1.918;2023-08-07T06:46:19;100181.63;;;17.10;74.53
63607;BME280;71992;52.478;-1.918;2023-08-07T06:48:54;100184.44;;;17.29;72.93
63607;BME280;71992;52.478;-1.918;2023-08-07T06:51:25;100180.31;;;17.56;71.57
63607;BME280;71992;52.478;-1.918;2023-08-07T06:53:56;100171.69;;;18.03;69.53
63607;BME280;71992;52.478;-1.918;2023-08-07T06:56:29;100173.78;;;18.40;67.66
63607;BME280;71992;52.478;-1.918;2023-08-07T06:59:00;100174.91;;;18.66;66.75
63607;BME280;71992;52.478;-1.918;2023-08-07T07:01:31;100173.50;;;18.91;64.10
63607;BME280;71992;52.478;-1.918;2023-08-07T07:04:02;100174.34;;;19.11;63.97
63607;BME280;71992;52.478;-1.918;2023-08-07T07:06:33;100169.34;;;19.26;63.03
63607;BME280;71992;52.478;-1.918;2023-08-07T07:09:04;100173.25;;;19.51;61.49
63607;BME280;71992;52.478;-1.918;2023-08-07T07:11:37;100167.75;;;19.80;60.45
63607;BME280;71992;52.478;-1.918;2023-08-07T07:14:08;100168.63;;;19.61;59.89
63607;BME280;71992;52.478;-1.918;2023-08-07T07:16:39;100176.97;;;19.40;60.63
63607;BME280;71992;52.478;-1.918;2023-08-07T07:19:11;100174.06;;;19.71;60.78
63607;BME280;71992;52.478;-1.918;2023-08-07T07:21:42;100170.91;;;20.03;59.40
63607;BME280;71992;52.478;-1.918;2023-08-07T07:24:13;100175.91;;;20.26;58.74
63607;BME280;71992;52.478;-1.918;2023-08-07T07:26:46;100178.00;;;20.50;57.10
63607;BME280;71992;52.478;-1.918;2023-08-07T07:29:17;100186.19;;;20.86;56.61
63607;BME280;71992;52.478;-1.918;2023-08-07T07:31:49;100192.19;;;21.16;55.73
63607;BME280;71992;52.478;-1.918;2023-08-07T07:34:21;100196.03;;;21.31;54.60
63607;BME280;71992;52.478;-1.918;2023-08-07T07:36:52;100191.78;;;21.55;54.01
63607;BME280;71992;52.478;-1.918;2023-08-07T07:39:23;100198.69;;;21.67;53.55
63607;BME280;71992;52.478;-1.918;2023-08-07T07:41:56;100197.44;;;21.87;52.97
63607;BME280;71992;52.478;-1.918;2023-08-07T07:44:27;100201.06;;;22.04;52.15
63607;BME280;71992;52.478;-1.918;2023-08-07T07:46:59;100193.97;;;22.20;51.87
63607;BME280;71992;52.478;-1.918;2023-08-07T07:49:29;100193.34;;;22.26;51.23
63607;BME280;71992;52.478;-1.918;2023-08-07T07:52:00;100201.91;;;22.39;50.94
63607;BME280;71992;52.478;-1.918;2023-08-07T07:54:31;100193.72;;;22.47;49.84
63607;BME280;71992;52.478;-1.918;2023-08-07T07:57:05;100194.25;;;22.51;49.61
63607;BME280;71992;52.478;-1.918;2023-08-07T07:59:36;100188.13;;;22.49;49.78
63607;BME280;71992;52.478;-1.918;2023-08-07T08:02:07;100180.66;;;22.59;49.89
63607;BME280;71992;52.478;-1.918;2023-08-07T08:04:38;100191.22;;;22.70;49.47
63607;BME280;71992;52.478;-1.918;2023-08-07T08:07:09;100197.50;;;22.63;48.67
63607;BME280;71992;52.478;-1.918;2023-08-07T08:09:40;100194.09;;;22.61;48.29
63607;BME280;71992;52.478;-1.918;2023-08-07T08:12:13;100194.28;;;22.67;47.52
63607;BME280;71992;52.478;-1.918;2023-08-07T08:14:44;100190.34;;;22.54;47.70
63607;BME280;71992;52.478;-1.918;2023-08-07T08:17:17;100195.28;;;22.66;47.68
63607;BME280;71992;52.478;-1.918;2023-08-07T08:19:48;100187.31;;;22.81;46.70
63607;BME280;71992;52.478;-1.918;2023-08-07T08:22:18;100192.78;;;22.89;46.66
63607;BME280;71992;52.478;-1.918;2023-08-07T08:24:49;100194.25;;;22.51;47.12
63607;BME280;71992;52.478;-1.918;2023-08-07T08:27:23;100197.97;;;22.34;47.08
63607;BME280;71992;52.478;-1.918;2023-08-07T08:29:54;100205.78;;;22.37;47.54
63607;BME280;71992;52.478;-1.918;2023-08-07T08:32:24;100195.09;;;22.51;47.03
63607;BME280;71992;52.478;-1.918;2023-08-07T08:34:55;100189.50;;;22.61;47.47
63607;BME280;71992;52.478;-1.918;2023-08-07T08:37:26;100182.41;;;22.85;46.95
63607;BME280;71992;52.478;-1.918;2023-08-07T08:39:57;100179.03;;;23.07;46.41
63607;BME280;71992;52.478;-1.918;2023-08-07T08:42:30;100178.31;;;22.97;45.68
63607;BME280;71992;52.478;-1.918;2023-08-07T08:45:04;100181.75;;;22.99;45.72
63607;BME280;71992;52.478;-1.918;2023-08-07T08:47:36;100184.47;;;22.99;45.92
63607;BME280;71992;52.478;-1.918;2023-08-07T08:50:09;100188.19;;;22.90;45.31
63607;BME280;71992;52.478;-1.918;2023-08-07T08:52:42;100193.94;;;22.62;45.60
63607;BME280;71992;52.478;-1.918;2023-08-07T08:55:14;100181.88;;;22.65;46.37
63607;BME280;71992;52.478;-1.918;2023-08-07T08:57:48;100187.19;;;22.99;46.27
63607;BME280;71992;52.478;-1.918;2023-08-07T09:00:19;100187.81;;;22.93;45.86
63607;BME280;71992;52.478;-1.918;2023-08-07T09:02:53;100183.78;;;23.05;44.94
63607;BME280;71992;52.478;-1.918;2023-08-07T09:05:24;100182.53;;;23.41;44.10
63607;BME280;71992;52.478;-1.918;2023-08-07T09:07:55;100178.78;;;23.50;43.06
63607;BME280;71992;52.478;-1.918;2023-08-07T09:10:27;100172.31;;;23.43;43.68
63607;BME280;71992;52.478;-1.918;2023-08-07T09:13:03;100181.22;;;23.20;44.21
63607;BME280;71992;52.478;-1.918;2023-08-07T09:15:36;100184.09;;;22.94;44.66
63607;BME280;71992;52.478;-1.918;2023-08-07T09:18:10;100181.00;;;22.72;45.10
63607;BME280;71992;52.478;-1.918;2023-08-07T09:20:41;100182.53;;;22.59;46.66
63607;BME280;71992;52.478;-1.918;2023-08-07T09:23:12;100176.94;;;22.93;45.76
63607;BME280;71992;52.478;-1.918;2023-08-07T09:25:44;100170.81;;;23.24;45.07
63607;BME280;71992;52.478;-1.918;2023-08-07T09:28:18;100173.03;;;23.28;44.22
63607;BME280;71992;52.478;-1.918;2023-08-07T09:30:52;100161.13;;;23.13;44.02
63607;BME280;71992;52.478;-1.918;2023-08-07T09:33:24;100162.66;;;22.83;44.12
63607;BME280;71992;52.478;-1.918;2023-08-07T09:35:58;100165.34;;;22.58;44.90
63607;BME280;71992;52.478;-1.918;2023-08-07T09:38:29;100165.66;;;22.39;45.37
63607;BME280;71992;52.478;-1.918;2023-08-07T09:41:00;100167.91;;;22.09;45.71
63607;BME280;71992;52.478;-1.918;2023-08-07T09:43:36;100159.34;;;21.87;44.83
63607;BME280;71992;52.478;-1.918;2023-08-07T09:46:07;100152.63;;;21.65;45.39
63607;BME280;71992;52.478;-1.918;2023-08-07T09:48:43;100153.03;;;21.44;45.71
63607;BME280;71992;52.478;-1.918;2023-08-07T09:51:13;100141.13;;;21.19;46.27
63607;BME280;71992;52.478;-1.918;2023-08-07T09:53:47;100161.78;;;21.12;46.98
63607;BME280;71992;52.478;-1.918;2023-08-07T09:56:22;100156.00;;;20.89;46.83
63607;BME280;71992;52.478;-1.918;2023-08-07T09:58:55;100163.94;;;20.64;47.93
63607;BME280;71992;52.478;-1.918;2023-08-07T10:01:28;100156.72;;;20.55;47.92
63607;BME280;71992;52.478;-1.918;2023-08-07T10:04:00;100151.94;;;20.67;48.32
63607;BME280;71992;52.478;-1.918;2023-08-07T10:06:31;100149.19;;;20.85;47.93
63607;BME280;71992;52.478;-1.918;2023-08-07T10:09:02;100139.66;;;21.07;46.66
63607;BME280;71992;52.478;-1.918;2023-08-07T10:11:34;100135.16;;;21.16;47.08
63607;BME280;71992;52.478;-1.918;2023-08-07T10:14:08;100131.38;;;21.09;45.66
63607;BME280;71992;52.478;-1.918;2023-08-07T10:16:40;100124.56;;;21.04;45.86
63607;BME280;71992;52.478;-1.918;2023-08-07T10:19:11;100120.25;;;21.20;45.88
63607;BME280;71992;52.478;-1.918;2023-08-07T10:21:43;100109.47;;;21.36;45.72
63607;BME280;71992;52.478;-1.918;2023-08-07T10:24:15;100109.66;;;21.35;44.69
63607;BME280;71992;52.478;-1.918;2023-08-07T10:26:46;100116.88;;;21.44;44.75
63607;BME280;71992;52.478;-1.918;2023-08-07T10:29:22;100114.59;;;21.39;43.35
63607;BME280;71992;52.478;-1.918;2023-08-07T10:31:56;100118.81;;;21.34;43.62
63607;BME280;71992;52.478;-1.918;2023-08-07T10:34:29;100117.94;;;21.33;43.37
63607;BME280;71992;52.478;-1.918;2023-08-07T10:37:00;100127.28;;;21.31;42.97
63607;BME280;71992;52.478;-1.918;2023-08-07T10:39:31;100129.03;;;21.14;42.98
63607;BME280;71992;52.478;-1.918;2023-08-07T10:42:02;100114.78;;;20.94;41.98
63607;BME280;71992;52.478;-1.918;2023-08-07T10:44:48;100124.38;;;20.80;42.00
63607;BME280;71992;52.478;-1.918;2023-08-07T10:47:32;100124.78;;;20.67;42.18
63607;BME280;71992;52.478;-1.918;2023-08-07T10:50:05;100123.88;;;20.58;42.17
63607;BME280;71992;52.478;-1.918;2023-08-07T10:52:38;100110.50;;;20.47;42.17
63607;BME280;71992;52.478;-1.918;2023-08-07T10:55:13;100122.34;;;20.46;43.20
63607;BME280;71992;52.478;-1.918;2023-08-07T10:57:47;100119.09;;;20.42;42.62
63607;BME280;71992;52.478;-1.918;2023-08-07T11:00:25;100111.13;;;20.41;42.84
63607;BME280;71992;52.478;-1.918;2023-08-07T11:02:58;100109.19;;;20.33;42.73
63607;BME280;71992;52.478;-1.918;2023-08-07T11:05:30;100113.28;;;20.19;43.68
63607;BME280;71992;52.478;-1.918;2023-08-07T11:08:02;100116.72;;;20.21;42.97
63607;BME280;71992;52.478;-1.918;2023-08-07T11:10:33;100108.72;;;20.20;43.28
63607;BME280;71992;52.478;-1.918;2023-08-07T11:13:03;100104.47;;;20.17;43.34
63607;BME280;71992;52.478;-1.918;2023-08-07T11:15:37;100093.38;;;20.11;43.05
63607;BME280;71992;52.478;-1.918;2023-08-07T11:18:08;100103.50;;;20.09;43.09
63607;BME280;71992;52.478;-1.918;2023-08-07T11:20:39;100099.97;;;20.08;43.13
63607;BME280;71992;52.478;-1.918;2023-08-07T11:23:11;100097.31;;;20.16;42.93
63607;BME280;71992;52.478;-1.918;2023-08-07T11:25:42;100098.66;;;20.12;43.33
63607;BME280;71992;52.478;-1.918;2023-08-07T11:28:13;100100.34;;;20.13;43.12
63607;BME280;71992;52.478;-1.918;2023-08-07T11:30:48;100094.34;;;20.10;42.95
63607;BME280;71992;52.478;-1.918;2023-08-07T11:33:19;100092.66;;;20.09;43.72
63607;BME280;71992;52.478;-1.918;2023-08-07T11:35:51;100096.63;;;20.14;43.75
63607;BME280;71992;52.478;-1.918;2023-08-07T11:38:32;100092.59;;;20.18;44.00
63607;BME280;71992;52.478;-1.918;2023-08-07T11:41:05;100095.94;;;20.12;44.02
63607;BME280;71992;52.478;-1.918;2023-08-07T11:43:37;100089.34;;;20.15;44.52
63607;BME280;71992;52.478;-1.918;2023-08-07T11:46:13;100095.31;;;20.18;44.18
63607;BME280;71992;52.478;-1.918;2023-08-07T11:48:45;100095.31;;;20.18;44.57
63607;BME280;71992;52.478;-1.918;2023-08-07T11:51:16;100092.44;;;20.20;44.12
63607;BME280;71992;52.478;-1.918;2023-08-07T11:53:47;100091.59;;;20.19;43.72
63607;BME280;71992;52.478;-1.918;2023-08-07T11:56:24;100089.28;;;20.24;43.62
63607;BME280;71992;52.478;-1.918;2023-08-07T11:58:57;100074.16;;;20.22;43.63
63607;BME280;71992;52.478;-1.918;2023-08-07T12:01:37;100080.06;;;20.17;44.14
63607;BME280;71992;52.478;-1.918;2023-08-07T12:04:09;100090.28;;;20.23;43.57
63607;BME280;71992;52.478;-1.918;2023-08-07T12:06:52;100081.44;;;20.21;43.48
63607;BME280;71992;52.478;-1.918;2023-08-07T12:09:25;100080.38;;;20.14;43.89
63607;BME280;71992;52.478;-1.918;2023-08-07T12:11:56;100077.81;;;20.13;43.62
63607;BME280;71992;52.478;-1.918;2023-08-07T12:14:29;100079.13;;;20.09;43.63
63607;BME280;71992;52.478;-1.918;2023-08-07T12:17:04;100075.25;;;20.11;43.79
63607;BME280;71992;52.478;-1.918;2023-08-07T12:19:38;100077.81;;;20.13;43.62
63607;BME280;71992;52.478;-1.918;2023-08-07T12:22:11;100070.59;;;20.21;43.19
63607;BME280;71992;52.478;-1.918;2023-08-07T12:24:42;100070.59;;;20.21;43.28
63607;BME280;71992;52.478;-1.918;2023-08-07T12:27:13;100066.50;;;20.17;43.79
63607;BME280;71992;52.478;-1.918;2023-08-07T12:29:44;100065.78;;;20.15;43.58
63607;BME280;71992;52.478;-1.918;2023-08-07T12:32:17;100067.19;;;20.19;43.82
63607;BME280;71992;52.478;-1.918;2023-08-07T12:34:48;100057.56;;;20.25;43.68
63607;BME280;71992;52.478;-1.918;2023-08-07T12:37:21;100056.34;;;20.37;43.11
63607;BME280;71992;52.478;-1.918;2023-08-07T12:39:52;100061.44;;;20.40;42.18
63607;BME280;71992;52.478;-1.918;2023-08-07T12:42:23;100057.50;;;20.35;43.19
63607;BME280;71992;52.478;-1.918;2023-08-07T12:44:54;100057.34;;;20.36;42.29
63607;BME280;71992;52.478;-1.918;2023-08-07T12:47:28;100059.34;;;20.34;42.08
63607;BME280;71992;52.478;-1.918;2023-08-07T12:49:59;100059.53;;;20.33;42.27
63607;BME280;71992;52.478;-1.918;2023-08-07T12:52:31;100057.28;;;20.28;42.23
63607;BME280;71992;52.478;-1.918;2023-08-07T12:55:02;100057.66;;;20.15;42.19
63607;BME280;71992;52.478;-1.918;2023-08-07T12:57:34;100048.81;;;20.13;42.80
63607;BME280;71992;52.478;-1.918;2023-08-07T13:00:06;100052.94;;;20.17;42.10
63607;BME280;71992;52.478;-1.918;2023-08-07T13:02:46;100047.28;;;20.29;41.92
63607;BME280;71992;52.478;-1.918;2023-08-07T13:05:17;100046.25;;;20.30;41.94